Time;durP1;ratioP1;P1;durP2;ratioP2;P2;SDS_P1;SDS_P2;PMS_P1;PMS_P2;Temp;Humidity;BMP_temperature;BMP_pressure;BME280_temperature;BME280_humidity;BME280_pressure;Samples;Min_cycle;Max_cycle;Signal;HPM_P1;HPM_P2
2023/03/07 05:06:30;;;;;;;9.88;6.57;;;4.40;99.90;;;;;;5031723;28;20228;-73
2023/03/07 05:08:55;;;;;;;9.20;5.10;;;4.40;99.90;;;;;;5033402;28;20177;-69
2023/03/07 05:11:21;;;;;;;6.27;4.53;;;4.40;99.90;;;;;;5034334;28;20626;-72
2023/03/07 05:13:46;;;;;;;5.80;4.20;;;4.30;99.90;;;;;;5031432;28;20183;-73
2023/03/07 05:16:12;;;;;;;6.80;6.10;;;4.40;99.90;;;;;;5013940;28;20173;-72
2023/03/07 05:18:37;;;;;;;4.47;3.50;;;4.30;99.90;;;;;;5028574;28;20554;-72
2023/03/07 05:21:03;;;;;;;6.37;3.90;;;4.30;99.90;;;;;;5013816;28;20174;-71
2023/03/07 05:23:29;;;;;;;4.43;4.03;;;4.40;99.90;;;;;;5012953;28;20239;-71
2023/03/07 05:25:56;;;;;;;8.47;5.20;;;4.30;99.90;;;;;;5013702;28;20278;-71
2023/03/07 05:28:21;;;;;;;7.38;5.45;;;4.30;99.90;;;;;;5013707;28;20240;-72
2023/03/07 05:30:47;;;;;;;6.77;5.47;;;4.30;99.90;;;;;;5013198;28;20218;-71
2023/03/07 05:33:13;;;;;;;6.53;5.10;;;4.30;99.90;;;;;;5012670;28;20178;-74
2023/03/07 05:35:39;;;;;;;5.10;3.10;;;4.30;99.90;;;;;;5012058;28;20519;-71
2023/03/07 05:38:05;;;;;;;4.93;4.30;;;4.30;99.90;;;;;;5013535;28;20202;-71
2023/03/07 05:40:31;;;;;;;8.13;3.92;;;4.30;99.90;;;;;;5012226;28;20570;-71
2023/03/07 05:42:56;;;;;;;9.23;6.10;;;4.30;99.90;;;;;;5012970;28;20257;-72
2023/03/07 05:45:22;;;;;;;5.60;3.90;;;4.30;99.90;;;;;;5013310;28;20663;-72
2023/03/07 05:47:48;;;;;;;8.30;4.80;;;4.30;99.90;;;;;;5013520;28;20630;-72
2023/03/07 05:50:13;;;;;;;8.43;5.27;;;4.30;99.90;;;;;;5013146;28;20591;-71
2023/03/07 05:52:39;;;;;;;6.20;5.00;;;4.30;99.90;;;;;;5013198;28;20179;-71
2023/03/07 05:55:06;;;;;;;5.55;4.43;;;4.30;99.90;;;;;;5012541;28;20212;-71
2023/03/07 05:57:32;;;;;;;4.55;3.55;;;4.30;99.90;;;;;;5012375;28;20174;-72
2023/03/07 05:59:58;;;;;;;6.63;4.93;;;4.30;99.90;;;;;;5012637;28;20178;-71
2023/03/07 06:02:23;;;;;;;4.77;4.27;;;4.40;99.90;;;;;;5013133;28;20247;-71
2023/03/07 06:04:49;;;;;;;5.77;4.20;;;4.30;99.90;;;;;;5012343;28;20205;-71
2023/03/07 06:07:15;;;;;;;8.33;4.90;;;4.40;99.90;;;;;;5012753;28;20674;-70
2023/03/07 06:09:40;;;;;;;5.10;3.67;;;4.40;99.90;;;;;;5013179;28;20666;-71
2023/03/07 06:12:09;;;;;;;4.83;4.00;;;4.40;99.90;;;;;;5013264;28;20411;-73
2023/03/07 06:14:34;;;;;;;5.30;3.42;;;4.50;99.90;;;;;;5012634;28;20192;-72
2023/03/07 06:17:01;;;;;;;5.10;4.20;;;4.40;99.90;;;;;;5012343;28;20569;-73
2023/03/07 06:19:26;;;;;;;4.47;3.88;;;4.40;99.90;;;;;;5012165;28;20651;-71
2023/03/07 06:21:52;;;;;;;6.03;5.43;;;4.40;99.90;;;;;;5013401;28;20180;-72
2023/03/07 06:24:19;;;;;;;4.43;4.03;;;4.40;99.90;;;;;;5012928;28;20745;-71
2023/03/07 06:26:45;;;;;;;5.68;4.40;;;4.40;99.90;;;;;;5014589;28;20263;-72
2023/03/07 06:29:10;;;;;;;7.03;4.93;;;4.50;99.90;;;;;;5013391;28;20670;-72
2023/03/07 06:31:36;;;;;;;6.80;5.17;;;4.50;99.90;;;;;;5012834;28;20179;-72
2023/03/07 06:34:01;;;;;;;5.13;4.33;;;4.60;99.90;;;;;;5012672;28;20203;-71
2023/03/07 06:36:27;;;;;;;5.80;4.50;;;4.60;99.90;;;;;;5011407;28;20668;-72
2023/03/07 06:38:53;;;;;;;6.07;3.90;;;4.60;99.90;;;;;;5011450;28;20180;-73
2023/03/07 06:41:18;;;;;;;6.60;4.40;;;4.60;99.90;;;;;;4997752;28;20524;-72
2023/03/07 06:43:44;;;;;;;5.18;3.70;;;4.60;99.90;;;;;;5012095;28;20435;-71
2023/03/07 06:46:10;;;;;;;8.03;4.13;;;4.70;99.90;;;;;;5019497;28;20667;-72
2023/03/07 06:48:36;;;;;;;8.20;4.88;;;4.80;99.90;;;;;;5012749;28;20178;-74
2023/03/07 06:51:08;;;;;;;6.57;4.63;;;4.80;99.90;;;;;;5014133;28;20175;-73
2023/03/07 06:53:34;;;;;;;4.55;3.65;;;4.90;99.90;;;;;;5004282;28;20558;-74
2023/03/07 06:55:59;;;;;;;5.83;4.30;;;4.90;99.90;;;;;;5015956;28;20197;-73
2023/03/07 06:58:25;;;;;;;9.13;5.23;;;5.00;99.90;;;;;;5014692;28;20422;-76
2023/03/07 07:00:51;;;;;;;12.93;4.50;;;5.00;99.90;;;;;;5014983;28;20194;-73
2023/03/07 07:03:18;;;;;;;7.80;4.60;;;5.00;99.90;;;;;;5015300;28;20199;-74
2023/03/07 07:05:44;;;;;;;5.45;3.78;;;5.00;99.90;;;;;;5015998;28;20204;-75
2023/03/07 07:08:10;;;;;;;3.43;3.00;;;5.10;99.90;;;;;;5016199;28;20177;-74
2023/03/07 07:10:36;;;;;;;7.90;4.13;;;5.10;99.90;;;;;;5015157;28;20553;-73
2023/03/07 07:13:03;;;;;;;4.83;4.33;;;5.10;99.90;;;;;;5015565;28;20406;-72
2023/03/07 07:15:29;;;;;;;6.20;4.32;;;5.20;99.90;;;;;;5015645;28;20271;-73
2023/03/07 07:17:55;;;;;;;7.40;4.40;;;5.20;99.90;;;;;;5015959;28;20227;-72
2023/03/07 07:20:21;;;;;;;5.17;4.20;;;5.20;99.90;;;;;;5014684;28;20626;-74
2023/03/07 07:22:46;;;;;;;5.03;4.20;;;5.20;99.90;;;;;;5015742;28;20170;-67
2023/03/07 07:25:12;;;;;;;8.00;6.43;;;5.30;99.80;;;;;;5015232;28;20259;-66
2023/03/07 07:27:38;;;;;;;5.03;3.60;;;5.30;99.70;;;;;;5015695;28;20179;-66
2023/03/07 07:30:04;;;;;;;3.37;2.97;;;5.30;99.70;;;;;;5015804;28;20179;-65
2023/03/07 07:32:30;;;;;;;4.80;3.90;;;5.40;99.70;;;;;;5015737;28;20198;-66
2023/03/07 07:34:56;;;;;;;4.77;3.70;;;5.40;99.80;;;;;;5014046;28;20237;-65
2023/03/07 07:37:21;;;;;;;5.60;3.47;;;5.50;99.70;;;;;;5015178;28;20174;-65
2023/03/07 07:39:51;;;;;;;5.67;3.90;;;5.60;99.60;;;;;;5015091;28;20171;-64
2023/03/07 07:42:16;;;;;;;5.55;3.97;;;5.70;99.70;;;;;;5015179;28;20175;-66
2023/03/07 07:44:42;;;;;;;6.27;3.73;;;5.80;99.60;;;;;;5013494;28;20213;-64
2023/03/07 07:47:08;;;;;;;8.40;5.27;;;5.90;99.30;;;;;;5015379;28;20539;-66
2023/03/07 07:49:34;;;;;;;4.55;3.67;;;5.90;99.40;;;;;;5014821;28;20808;-64
2023/03/07 07:52:00;;;;;;;7.73;5.27;;;6.00;99.00;;;;;;5014424;28;20174;-65
2023/03/07 07:54:26;;;;;;;7.37;4.13;;;6.10;98.90;;;;;;5013474;28;20796;-65
2023/03/07 07:56:51;;;;;;;5.30;3.47;;;6.20;98.60;;;;;;5014720;28;20437;-65
2023/03/07 07:59:17;;;;;;;6.63;5.07;;;6.20;98.40;;;;;;5015336;28;20178;-65
2023/03/07 08:01:42;;;;;;;5.37;3.10;;;6.30;98.60;;;;;;5013350;28;20269;-64
2023/03/07 08:04:08;;;;;;;12.03;4.53;;;6.40;98.70;;;;;;4996924;28;20241;-65
2023/03/07 08:06:34;;;;;;;7.10;4.87;;;6.50;98.10;;;;;;5014336;28;20244;-63
2023/03/07 08:08:59;;;;;;;4.77;4.10;;;6.60;97.80;;;;;;5014307;28;20189;-65
2023/03/07 08:11:25;;;;;;;6.23;4.80;;;6.60;97.80;;;;;;5015078;28;20175;-66
2023/03/07 08:13:51;;;;;;;3.90;3.23;;;6.70;97.80;;;;;;5014615;28;20185;-64
2023/03/07 08:16:22;;;;;;;6.00;4.53;;;6.80;97.60;;;;;;5014994;28;20671;-63
2023/03/07 08:18:52;;;;;;;7.28;5.45;;;7.00;97.40;;;;;;5015278;28;20777;-64
2023/03/07 08:21:18;;;;;;;5.75;3.90;;;7.00;97.00;;;;;;5016656;28;20221;-64
2023/03/07 08:23:44;;;;;;;4.00;3.40;;;7.10;97.20;;;;;;5014965;28;20190;-65
2023/03/07 08:26:12;;;;;;;6.30;4.40;;;7.20;96.70;;;;;;5015973;28;20181;-64
2023/03/07 08:28:40;;;;;;;7.00;4.30;;;7.30;96.20;;;;;;5016273;28;20357;-66
2023/03/07 08:31:15;;;;;;;4.30;3.90;;;7.40;96.00;;;;;;5017072;28;20206;-65
2023/03/07 08:33:41;;;;;;;8.10;4.78;;;7.50;95.90;;;;;;5016344;28;20166;-68
2023/03/07 08:36:08;;;;;;;6.30;4.32;;;7.60;95.80;;;;;;5014757;28;20174;-65
2023/03/07 08:38:34;;;;;;;5.57;4.63;;;7.60;95.90;;;;;;5014435;28;20185;-65
2023/03/07 08:41:04;;;;;;;4.40;3.65;;;7.70;95.50;;;;;;5010982;28;20244;-67
2023/03/07 08:43:31;;;;;;;4.63;4.00;;;7.90;95.40;;;;;;5014576;28;20221;-66
2023/03/07 08:45:57;;;;;;;5.40;4.25;;;7.90;95.00;;;;;;5014468;28;20199;-66
2023/03/07 08:48:23;;;;;;;4.73;4.23;;;8.00;95.30;;;;;;5014553;28;20651;-66
2023/03/07 08:50:48;;;;;;;4.50;4.10;;;8.20;94.80;;;;;;5013660;28;20737;-66
2023/03/07 08:53:15;;;;;;;6.23;5.17;;;8.20;94.50;;;;;;5013674;28;20174;-66
2023/03/07 08:55:42;;;;;;;3.85;3.15;;;8.40;94.60;;;;;;5003542;28;20655;-67
2023/03/07 08:58:08;;;;;;;5.40;4.28;;;8.60;94.90;;;;;;5014170;28;20691;-66
2023/03/07 09:00:34;;;;;;;6.38;4.97;;;9.00;94.10;;;;;;5013899;28;20171;-65
2023/03/07 09:03:00;;;;;;;4.37;3.63;;;9.20;93.40;;;;;;5013148;28;20182;-67
2023/03/07 09:05:29;;;;;;;6.73;4.30;;;9.50;93.40;;;;;;5013559;28;20543;-69
2023/03/07 09:07:55;;;;;;;4.27;3.87;;;10.10;92.40;;;;;;5013902;28;20799;-66
2023/03/07 09:10:21;;;;;;;4.60;4.13;;;10.60;91.30;;;;;;5013251;28;20487;-66
2023/03/07 09:12:49;;;;;;;6.40;3.80;;;11.20;90.30;;;;;;4996056;28;20167;-66
2023/03/07 09:15:16;;;;;;;4.77;4.30;;;11.70;87.70;;;;;;5012860;28;20477;-66
2023/03/07 09:17:41;;;;;;;5.50;4.07;;;11.90;86.20;;;;;;5012811;28;20437;-65
2023/03/07 09:20:08;;;;;;;4.00;3.60;;;11.70;84.60;;;;;;5013614;28;20399;-65
2023/03/07 09:22:33;;;;;;;5.90;4.90;;;11.70;84.20;;;;;;5012223;28;20221;-66
2023/03/07 09:24:59;;;;;;;5.03;4.30;;;11.80;83.80;;;;;;5012938;28;20482;-65
2023/03/07 09:27:25;;;;;;;5.70;4.00;;;12.00;84.30;;;;;;5013590;28;20558;-66
2023/03/07 09:29:51;;;;;;;4.87;3.97;;;12.50;83.20;;;;;;5013783;28;20177;-68
2023/03/07 09:32:16;;;;;;;4.00;3.63;;;13.20;82.40;;;;;;5013818;28;20410;-64
2023/03/07 09:34:42;;;;;;;4.17;3.77;;;14.10;79.20;;;;;;5012575;28;20616;-68
2023/03/07 09:37:08;;;;;;;4.23;3.43;;;14.50;76.10;;;;;;5012180;28;20208;-67
2023/03/07 09:39:34;;;;;;;5.10;4.20;;;15.00;75.60;;;;;;5013466;28;20274;-66
2023/03/07 09:42:10;;;;;;;5.97;4.07;;;15.70;75.00;;;;;;5013324;28;20487;-67
2023/03/07 09:44:44;;;;;;;4.47;3.50;;;16.60;72.60;;;;;;5012978;28;20206;-66
2023/03/07 09:47:48;;;;;;;4.43;3.83;;;16.80;68.20;;;;;;5012872;28;20424;-67
2023/03/07 09:50:20;;;;;;;5.57;3.83;;;16.50;64.60;;;;;;5013330;28;20757;-68
2023/03/07 09:52:46;;;;;;;3.83;3.53;;;15.90;64.50;;;;;;5013211;28;20704;-68
2023/03/07 09:55:18;;;;;;;4.70;3.60;;;15.20;66.20;;;;;;5013181;28;20441;-66
2023/03/07 09:57:50;;;;;;;3.73;3.33;;;14.80;66.10;;;;;;5012779;28;20217;-66
2023/03/07 10:00:37;;;;;;;3.80;3.50;;;13.90;66.90;;;;;;5013278;28;20932;-65
2023/03/07 10:03:23;;;;;;;6.40;3.67;;;13.00;68.50;;;;;;5012824;28;20496;-67
2023/03/07 10:05:51;;;;;;;3.83;3.10;;;12.10;70.40;;;;;;5012857;28;20979;-66
2023/03/07 10:08:20;;;;;;;6.03;3.77;;;11.50;71.60;;;;;;5011929;28;20422;-65
2023/03/07 10:11:02;;;;;;;3.93;3.53;;;10.90;71.30;;;;;;5013281;28;20402;-64
2023/03/07 10:14:17;;;;;;;5.40;3.13;;;10.50;72.80;;;;;;5012872;28;20422;-68
2023/03/07 10:16:57;;;;;;;5.07;2.53;;;10.10;74.90;;;;;;4998535;28;20495;-66
2023/03/07 10:19:43;;;;;;;2.63;2.43;;;9.70;77.40;;;;;;5012611;28;20558;-68
2023/03/07 10:22:34;;;;;;;4.00;2.93;;;9.50;76.70;;;;;;5011882;28;20417;-67
2023/03/07 10:25:07;;;;;;;1.90;1.80;;;9.10;77.50;;;;;;5012772;28;20469;-67
2023/03/07 10:27:33;;;;;;;4.35;3.00;;;8.80;79.10;;;;;;5017020;28;20179;-67
2023/03/07 10:30:07;;;;;;;3.13;2.83;;;8.60;79.90;;;;;;5015901;28;20167;-68
2023/03/07 10:32:46;;;;;;;2.78;2.50;;;8.40;80.50;;;;;;5017033;28;20253;-66
2023/03/07 10:35:14;;;;;;;3.55;3.25;;;8.20;81.40;;;;;;5016402;28;20218;-66
2023/03/07 10:38:01;;;;;;;4.82;2.80;;;8.10;82.20;;;;;;5015050;28;20186;-70
2023/03/07 10:40:51;;;;;;;2.58;2.38;;;8.00;82.50;;;;;;5015979;28;20185;-69
2023/03/07 10:43:32;;;;;;;5.10;3.20;;;7.90;82.70;;;;;;5014959;28;20202;-69
2023/03/07 10:46:18;;;;;;;4.03;2.72;;;7.70;82.60;;;;;;5016171;28;20225;-71
2023/03/07 10:48:52;;;;;;;4.18;2.97;;;7.60;83.20;;;;;;4998701;28;20182;-69
2023/03/07 10:51:26;;;;;;;6.72;3.58;;;7.60;83.80;;;;;;5015874;28;20179;-70
2023/03/07 10:53:55;;;;;;;4.55;2.78;;;7.60;83.70;;;;;;5015075;28;20650;-71
2023/03/07 10:56:21;;;;;;;3.95;3.05;;;7.50;83.10;;;;;;5016105;28;20183;-71
2023/03/07 10:59:00;;;;;;;3.60;3.00;;;7.40;83.00;;;;;;5016674;28;20175;-70
2023/03/07 11:01:26;;;;;;;5.47;3.38;;;7.30;84.50;;;;;;5015663;28;20179;-71
2023/03/07 11:04:04;;;;;;;3.83;3.38;;;7.30;85.10;;;;;;5014141;28;20205;-72
2023/03/07 11:06:38;;;;;;;2.50;2.28;;;7.30;85.40;;;;;;5034950;28;20186;-71
2023/03/07 11:09:13;;;;;;;3.97;3.50;;;7.30;85.40;;;;;;5034990;28;20177;-72
2023/03/07 11:11:38;;;;;;;5.10;3.58;;;7.40;85.50;;;;;;5034140;28;20576;-72
2023/03/07 11:14:07;;;;;;;3.20;2.90;;;7.40;86.00;;;;;;5015144;28;20282;-71
2023/03/07 11:16:38;;;;;;;5.90;4.10;;;7.40;85.80;;;;;;5014764;28;20284;-70
2023/03/07 11:19:34;;;;;;;5.32;3.40;;;7.30;85.00;;;;;;5016000;28;20170;-70
2023/03/07 11:22:02;;;;;;;4.28;3.50;;;7.30;84.50;;;;;;5015881;28;20162;-69
2023/03/07 11:24:38;;;;;;;3.40;3.10;;;7.30;84.30;;;;;;4997823;28;20207;-69
2023/03/07 11:27:04;;;;;;;4.20;3.63;;;7.20;84.10;;;;;;4997919;28;20182;-71
2023/03/07 11:29:35;;;;;;;6.07;3.80;;;7.20;85.00;;;;;;5015776;28;20166;-70
2023/03/07 11:32:03;;;;;;;5.05;4.10;;;7.20;85.70;;;;;;5015700;28;20178;-70
2023/03/07 11:34:50;;;;;;;4.50;3.33;;;7.20;84.90;;;;;;5015126;28;20201;-69
2023/03/07 11:37:16;;;;;;;3.72;2.95;;;7.20;85.50;;;;;;5014500;28;20171;-70
2023/03/07 11:39:59;;;;;;;3.63;3.07;;;7.20;85.50;;;;;;5015437;28;20250;-71
2023/03/07 11:42:33;;;;;;;5.63;3.25;;;7.20;85.80;;;;;;5015466;28;20680;-70
2023/03/07 11:45:50;;;;;;;5.32;3.45;;;7.20;85.70;;;;;;5015052;28;20211;-69
2023/03/07 11:48:30;;;;;;;3.63;3.38;;;7.30;85.10;;;;;;4989750;28;20191;-69
2023/03/07 11:50:58;;;;;;;4.80;2.75;;;7.20;84.20;;;;;;5015468;28;20179;-70
2023/03/07 11:53:47;;;;;;;4.82;3.20;;;7.30;84.50;;;;;;5014687;28;20256;-69
2023/03/07 11:56:25;;;;;;;4.85;3.45;;;7.30;84.40;;;;;;5015389;28;20701;-71
2023/03/07 11:58:56;;;;;;;7.03;3.95;;;7.30;84.60;;;;;;5015332;28;20198;-70
2023/03/07 12:01:38;;;;;;;4.95;3.88;;;7.30;84.10;;;;;;5015442;28;20538;-72
2023/03/07 12:04:21;;;;;;;4.45;3.75;;;7.30;83.00;;;;;;5014337;28;20264;-69
2023/03/07 12:06:56;;;;;;;5.35;3.60;;;7.30;83.50;;;;;;5014729;28;20190;-70
2023/03/07 12:09:44;;;;;;;6.13;3.30;;;7.20;83.80;;;;;;5015189;28;20209;-70
2023/03/07 12:12:48;;;;;;;4.47;3.72;;;7.10;84.00;;;;;;5013689;28;20665;-70
2023/03/07 12:15:22;;;;;;;4.40;3.20;;;7.10;84.50;;;;;;5014893;28;20608;-69
2023/03/07 12:17:57;;;;;;;4.78;2.83;;;7.10;85.50;;;;;;5014625;28;20173;-71
2023/03/07 12:20:26;;;;;;;4.60;3.53;;;7.20;85.00;;;;;;5014772;28;20208;-70
2023/03/07 12:23:14;;;;;;;4.53;3.00;;;7.20;83.80;;;;;;5013989;28;20178;-71
2023/03/07 12:25:53;;;;;;;5.50;3.60;;;7.20;83.10;;;;;;5014634;28;20670;-72
2023/03/07 12:28:33;;;;;;;5.13;3.05;;;7.30;83.90;;;;;;4996958;28;20182;-70
2023/03/07 12:31:20;;;;;;;5.45;4.15;;;7.30;84.50;;;;;;5014557;28;20573;-71
2023/03/07 12:33:59;;;;;;;4.60;3.10;;;7.40;84.00;;;;;;5014170;28;20195;-73
2023/03/07 12:36:49;;;;;;;3.63;2.80;;;7.60;83.10;;;;;;5012901;28;20179;-72
2023/03/07 12:39:29;;;;;;;3.72;2.85;;;7.70;83.10;;;;;;5014501;28;20174;-73
2023/03/07 12:42:04;;;;;;;4.10;2.70;;;7.80;82.30;;;;;;5014666;28;20163;-73
2023/03/07 12:44:46;;;;;;;2.80;2.60;;;8.00;82.30;;;;;;5013655;28;20201;-72
2023/03/07 12:47:40;;;;;;;3.55;3.00;;;8.40;81.40;;;;;;5014488;28;20167;-73
2023/03/07 12:50:29;;;;;;;2.97;2.72;;;8.70;81.60;;;;;;5014122;28;20279;-71
2023/03/07 12:53:28;;;;;;;3.33;3.05;;;9.00;80.10;;;;;;5014013;28;20240;-71
2023/03/07 12:56:02;;;;;;;3.45;3.15;;;9.20;78.30;;;;;;5012894;28;20249;-71
2023/03/07 12:58:49;;;;;;;3.67;3.05;;;9.50;78.20;;;;;;5014303;28;20166;-72
2023/03/07 13:01:33;;;;;;;3.30;2.40;;;9.60;77.60;;;;;;5013867;28;20517;-71
2023/03/07 13:04:19;;;;;;;3.80;3.40;;;9.70;77.10;;;;;;5013620;28;20458;-70
2023/03/07 13:06:46;;;;;;;6.03;2.77;;;9.70;76.70;;;;;;5013733;28;20522;-72
2023/03/07 13:09:23;;;;;;;2.97;2.67;;;9.90;76.10;;;;;;5014062;28;20411;-69
2023/03/07 13:12:21;;;;;;;3.77;2.97;;;9.70;75.30;;;;;;5013834;28;20402;-74
2023/03/07 13:14:49;;;;;;;4.10;3.70;;;9.60;76.50;;;;;;5013534;28;20423;-69
2023/03/07 13:17:29;;;;;;;3.10;2.43;;;9.40;77.00;;;;;;5013760;28;20402;-73
2023/03/07 13:19:57;;;;;;;3.70;3.20;;;9.50;77.90;;;;;;5013370;28;20426;-72
2023/03/07 13:22:22;;;;;;;3.93;2.53;;;9.60;76.80;;;;;;5013574;28;20432;-71
2023/03/07 13:24:56;;;;;;;2.97;2.50;;;9.40;77.30;;;;;;5013227;28;20466;-69
2023/03/07 13:27:29;;;;;;;4.85;3.55;;;9.30;77.80;;;;;;5013946;28;20536;-70
2023/03/07 13:30:07;;;;;;;3.80;2.92;;;9.30;77.90;;;;;;5013808;28;20230;-73
2023/03/07 13:32:48;;;;;;;5.60;2.80;;;9.30;77.30;;;;;;5012175;28;20198;-67
2023/03/07 13:35:45;;;;;;;4.45;3.17;;;9.30;77.50;;;;;;4993985;28;20207;-68
2023/03/07 13:38:16;;;;;;;5.25;3.78;;;9.30;78.40;;;;;;4971268;28;20198;-68
2023/03/07 13:40:47;;;;;;;4.28;2.00;;;9.20;78.00;;;;;;5013746;28;20175;-70
2023/03/07 13:43:19;;;;;;;2.20;1.77;;;9.10;77.90;;;;;;5013087;28;20238;-69
2023/03/07 13:45:59;;;;;;;3.80;3.13;;;9.00;76.50;;;;;;5013527;28;20191;-68
2023/03/07 13:48:31;;;;;;;3.42;2.45;;;8.80;77.10;;;;;;5013691;28;20224;-69
2023/03/07 13:50:59;;;;;;;2.65;2.45;;;8.70;77.40;;;;;;5013514;28;20594;-69
2023/03/07 13:53:30;;;;;;;3.55;3.00;;;8.50;77.70;;;;;;5012856;28;20642;-70
2023/03/07 13:56:16;;;;;;;3.17;2.72;;;8.40;78.00;;;;;;5013338;28;20205;-68
2023/03/07 13:59:23;;;;;;;3.60;2.90;;;8.30;78.70;;;;;;5013570;28;20194;-69
2023/03/07 14:01:57;;;;;;;2.58;2.40;;;8.20;78.90;;;;;;4956709;29;20593;-70
2023/03/07 14:04:54;;;;;;;2.58;2.33;;;8.10;78.80;;;;;;4956458;29;20214;-69
2023/03/07 14:07:27;;;;;;;3.03;2.72;;;8.00;80.00;;;;;;4954069;28;20206;-69
2023/03/07 14:09:56;;;;;;;4.35;3.22;;;8.00;80.00;;;;;;4975709;28;20203;-69
2023/03/07 14:12:33;;;;;;;3.67;2.50;;;8.00;80.70;;;;;;4976314;28;20264;-70
2023/03/07 14:15:22;;;;;;;2.40;1.95;;;8.10;80.70;;;;;;4975774;28;20210;-69
2023/03/07 14:17:52;;;;;;;3.95;3.05;;;8.10;80.10;;;;;;4975989;28;20192;-70
2023/03/07 14:20:42;;;;;;;5.65;2.35;;;8.10;80.60;;;;;;4975976;28;20192;-73
2023/03/07 14:23:49;;;;;;;2.72;2.53;;;8.10;81.70;;;;;;4965527;28;20181;-70
2023/03/07 14:26:18;;;;;;;2.35;2.15;;;8.10;81.40;;;;;;4956675;29;20551;-69
2023/03/07 14:29:11;;;;;;;2.42;2.22;;;8.10;81.40;;;;;;4956991;28;20261;-70
2023/03/07 14:31:39;;;;;;;3.75;2.95;;;8.10;80.90;;;;;;4961552;28;20664;-70
2023/03/07 14:34:20;;;;;;;4.00;1.75;;;8.10;81.90;;;;;;5016296;28;20214;-69
2023/03/07 14:37:09;;;;;;;3.05;2.65;;;8.10;81.20;;;;;;5016538;28;20519;-70
2023/03/07 14:39:43;;;;;;;3.63;3.00;;;8.20;81.70;;;;;;5016139;28;20646;-68
2023/03/07 14:42:23;;;;;;;3.50;2.80;;;8.20;81.90;;;;;;5016798;28;20508;-71
2023/03/07 14:45:12;;;;;;;3.90;2.45;;;8.30;81.80;;;;;;5016310;28;20619;-71
2023/03/07 14:48:16;;;;;;;2.45;2.25;;;8.40;81.80;;;;;;5008524;28;20233;-69
2023/03/07 14:50:43;;;;;;;2.03;1.92;;;8.50;81.30;;;;;;4958909;28;20175;-69
2023/03/07 14:53:24;;;;;;;3.42;2.35;;;8.60;81.10;;;;;;4975106;28;20175;-70
2023/03/07 14:55:53;;;;;;;3.15;2.10;;;8.60;79.70;;;;;;4998904;28;20210;-72
2023/03/07 14:58:25;;;;;;;4.25;2.05;;;8.60;80.10;;;;;;5016268;28;20635;-69
2023/03/07 15:01:03;;;;;;;2.45;2.03;;;8.60;80.40;;;;;;5017292;28;20632;-70
2023/03/07 15:03:29;;;;;;;4.95;1.95;;;8.60;80.60;;;;;;5016697;28;20198;-69
2023/03/07 15:06:00;;;;;;;3.33;2.60;;;8.60;81.00;;;;;;5015744;28;20210;-67
2023/03/07 15:08:34;;;;;;;2.53;2.30;;;8.70;81.30;;;;;;5016428;28;20181;-71
2023/03/07 15:11:22;;;;;;;4.18;2.42;;;8.60;80.70;;;;;;5016193;28;20497;-68
2023/03/07 15:13:58;;;;;;;2.83;2.20;;;8.70;80.70;;;;;;5015434;28;20183;-69
2023/03/07 15:16:33;;;;;;;1.75;1.65;;;8.70;80.80;;;;;;5016406;28;20170;-72
2023/03/07 15:19:26;;;;;;;3.00;2.70;;;8.70;81.30;;;;;;5016208;28;20174;-69
2023/03/07 15:21:58;;;;;;;3.67;2.22;;;8.70;80.70;;;;;;5016114;28;20250;-70
2023/03/07 15:24:32;;;;;;;2.67;2.42;;;8.80;80.00;;;;;;5015475;28;20570;-67
2023/03/07 15:26:59;;;;;;;2.35;2.10;;;8.90;80.20;;;;;;5015609;28;20546;-71
2023/03/07 15:29:28;;;;;;;2.80;1.77;;;8.80;79.90;;;;;;5015809;28;20241;-71
2023/03/07 15:31:58;;;;;;;1.80;1.48;;;8.80;79.80;;;;;;5016155;28;20174;-69
2023/03/07 15:34:32;;;;;;;3.50;2.20;;;8.80;79.40;;;;;;5015444;28;20191;-69
2023/03/07 15:37:22;;;;;;;2.05;1.85;;;8.90;79.50;;;;;;5015940;28;20175;-71
2023/03/07 15:40:15;;;;;;;5.20;3.58;;;8.90;79.40;;;;;;5014476;28;20176;-70
2023/03/07 15:42:52;;;;;;;2.00;1.90;;;8.90;79.60;;;;;;4968308;28;20195;-71
2023/03/07 15:45:57;;;;;;;1.90;1.75;;;8.80;79.90;;;;;;4974184;28;20565;-70
2023/03/07 15:48:37;;;;;;;2.90;1.77;;;8.70;80.50;;;;;;4974608;28;20176;-69
2023/03/07 15:51:09;;;;;;;1.92;1.45;;;8.60;80.80;;;;;;4974345;28;20193;-68
2023/03/07 15:53:40;;;;;;;2.03;1.83;;;8.50;81.40;;;;;;4973824;28;20656;-70
2023/03/07 15:56:21;;;;;;;1.80;1.70;;;8.50;82.00;;;;;;4971391;28;20546;-67
2023/03/07 15:58:48;;;;;;;2.13;1.92;;;8.50;82.40;;;;;;4972496;28;20214;-68
2023/03/07 16:01:24;;;;;;;2.65;2.45;;;8.50;82.40;;;;;;4974217;28;20540;-70
2023/03/07 16:04:31;;;;;;;2.72;1.50;;;8.50;82.50;;;;;;4973628;28;20258;-71
2023/03/07 16:06:56;;;;;;;4.18;2.53;;;8.60;82.30;;;;;;4973294;28;20211;-71
2023/03/07 16:09:22;;;;;;;2.63;1.60;;;8.60;82.10;;;;;;4973953;28;20180;-68
2023/03/07 16:11:47;;;;;;;4.40;2.77;;;8.60;82.60;;;;;;4974312;28;20175;-70
2023/03/07 16:14:20;;;;;;;2.20;2.00;;;8.60;82.20;;;;;;4965748;28;20214;-68
2023/03/07 16:16:46;;;;;;;2.92;2.72;;;8.50;82.00;;;;;;4954691;28;20593;-70
2023/03/07 16:19:12;;;;;;;2.40;2.20;;;8.40;82.50;;;;;;4970291;28;20557;-69
2023/03/07 16:21:37;;;;;;;2.13;1.93;;;8.30;82.60;;;;;;5014821;28;20196;-70
2023/03/07 16:24:03;;;;;;;4.13;1.73;;;8.20;82.90;;;;;;5013844;28;20239;-69
2023/03/07 16:26:30;;;;;;;2.03;1.83;;;8.10;82.90;;;;;;5013404;28;20179;-70
2023/03/07 16:28:58;;;;;;;3.67;2.65;;;8.00;83.70;;;;;;5014387;28;20246;-69
2023/03/07 16:31:24;;;;;;;5.25;2.25;;;8.00;84.80;;;;;;5014865;28;20178;-69
2023/03/07 16:33:49;;;;;;;2.53;1.93;;;8.00;85.10;;;;;;5014455;28;20626;-70
2023/03/07 16:36:15;;;;;;;2.20;1.97;;;7.90;85.00;;;;;;5014270;28;20191;-67
2023/03/07 16:38:41;;;;;;;2.33;2.13;;;7.80;85.00;;;;;;5014540;28;20661;-71
2023/03/07 16:41:15;;;;;;;2.10;1.80;;;7.80;85.20;;;;;;5014130;28;20405;-70
2023/03/07 16:43:41;;;;;;;4.93;2.15;;;7.60;85.80;;;;;;5012439;28;20202;-71
2023/03/07 16:46:15;;;;;;;2.80;1.83;;;7.60;86.10;;;;;;5014352;28;20534;-70
2023/03/07 16:48:41;;;;;;;3.90;2.88;;;7.40;86.20;;;;;;5014148;28;20217;-70
2023/03/07 16:51:19;;;;;;;2.25;2.05;;;7.40;86.80;;;;;;5014285;28;20170;-70
2023/03/07 16:53:46;;;;;;;2.70;1.90;;;7.30;86.90;;;;;;5013805;28;20178;-71
2023/03/07 16:56:20;;;;;;;3.53;2.05;;;7.20;86.90;;;;;;5014377;28;20229;-69
2023/03/07 16:58:46;;;;;;;2.40;2.20;;;7.20;87.50;;;;;;5014220;28;20224;-70
2023/03/07 17:01:13;;;;;;;3.27;2.20;;;7.10;87.60;;;;;;5013884;28;20252;-72
2023/03/07 17:03:39;;;;;;;2.97;2.78;;;7.00;87.70;;;;;;5012665;28;20198;-69
2023/03/07 17:06:05;;;;;;;2.80;2.33;;;6.90;87.70;;;;;;5013853;28;20185;-69
2023/03/07 17:08:30;;;;;;;2.30;2.10;;;6.80;88.20;;;;;;5014092;28;20300;-72
2023/03/07 17:10:56;;;;;;;3.07;2.40;;;6.80;88.80;;;;;;5013786;28;20412;-69
2023/03/07 17:13:22;;;;;;;4.70;3.30;;;6.70;89.10;;;;;;5013690;28;20182;-69
2023/03/07 17:15:48;;;;;;;5.07;2.33;;;6.60;89.90;;;;;;5013328;28;20191;-71
2023/03/07 17:18:14;;;;;;;2.70;2.50;;;6.60;89.70;;;;;;5013663;28;20497;-66
2023/03/07 17:20:40;;;;;;;5.30;2.90;;;6.50;90.00;;;;;;5013837;28;20253;-66
2023/03/07 17:23:06;;;;;;;2.67;1.83;;;6.40;89.90;;;;;;5013461;28;20539;-67
2023/03/07 17:25:32;;;;;;;5.03;2.90;;;6.40;90.20;;;;;;5013401;28;20284;-67
2023/03/07 17:28:03;;;;;;;2.53;2.13;;;6.30;90.30;;;;;;5013644;28;20173;-67
2023/03/07 17:30:30;;;;;;;3.40;2.08;;;6.30;90.30;;;;;;5013745;28;20531;-66
2023/03/07 17:32:56;;;;;;;4.75;2.90;;;6.20;90.30;;;;;;5013290;28;20178;-66
2023/03/07 17:35:22;;;;;;;8.85;3.50;;;6.20;90.60;;;;;;5012484;28;20194;-67
2023/03/07 17:37:54;;;;;;;2.50;2.30;;;6.10;90.60;;;;;;5013047;28;20228;-65
2023/03/07 17:40:21;;;;;;;3.15;2.85;;;6.00;90.70;;;;;;5013294;28;20168;-67
2023/03/07 17:42:50;;;;;;;2.53;2.33;;;6.00;90.60;;;;;;5012698;28;20189;-69
2023/03/07 17:45:17;;;;;;;3.17;1.77;;;5.90;90.90;;;;;;5013049;28;20205;-69
2023/03/07 17:47:42;;;;;;;5.00;2.75;;;5.90;90.70;;;;;;4994591;28;20209;-70
2023/03/07 17:50:09;;;;;;;3.30;2.90;;;5.90;91.10;;;;;;5013562;28;20211;-69
2023/03/07 17:52:35;;;;;;;3.55;2.78;;;5.90;91.30;;;;;;5012191;28;20170;-69
2023/03/07 17:55:01;;;;;;;4.55;2.92;;;5.80;91.10;;;;;;5012932;28;20189;-68
2023/03/07 17:57:27;;;;;;;2.30;2.10;;;5.80;91.10;;;;;;5013132;28;20547;-67
2023/03/07 17:59:54;;;;;;;2.00;1.63;;;5.80;91.20;;;;;;5013420;28;20406;-67
2023/03/07 18:02:20;;;;;;;2.45;2.25;;;5.80;91.20;;;;;;5013126;28;20232;-68
2023/03/07 18:04:45;;;;;;;2.97;1.90;;;5.70;91.20;;;;;;5012890;28;20575;-67
2023/03/07 18:07:11;;;;;;;2.73;1.90;;;5.70;91.40;;;;;;4995316;28;20183;-69
2023/03/07 18:09:37;;;;;;;2.40;2.20;;;5.70;91.50;;;;;;5013266;28;20492;-68
2023/03/07 18:12:03;;;;;;;2.80;2.60;;;5.70;91.40;;;;;;5012581;28;20537;-67
2023/03/07 18:14:28;;;;;;;2.80;2.40;;;5.70;91.40;;;;;;5012004;28;20697;-69
2023/03/07 18:16:54;;;;;;;6.00;2.90;;;5.70;91.30;;;;;;5012041;28;20179;-69
2023/03/07 18:19:20;;;;;;;2.53;2.33;;;5.80;91.20;;;;;;5013165;28;20411;-69
2023/03/07 18:21:46;;;;;;;2.90;2.03;;;5.80;91.00;;;;;;5013024;28;20182;-69
2023/03/07 18:24:25;;;;;;;3.40;3.10;;;5.90;90.90;;;;;;5012456;28;20202;-68
2023/03/07 18:26:51;;;;;;;3.60;2.63;;;5.80;90.90;;;;;;5013184;28;20151;-69